createdAt,value
2018-08-03T00:01:22.543Z,32.17
2018-08-03T00:03:50.803Z,27.97
2018-08-03T00:06:19.111Z,32.40
2018-08-03T00:08:47.342Z,30.63
2018-08-03T00:11:15.590Z,30.60
2018-08-03T00:13:43.984Z,31.57
2018-08-03T00:16:12.290Z,31.70
2018-08-03T00:18:40.526Z,30.63
2018-08-03T00:21:08.891Z,31.47
2018-08-03T00:23:37.103Z,30.20
2018-08-03T00:26:05.355Z,30.80
2018-08-03T00:28:33.554Z,30.53
2018-08-03T00:31:01.832Z,28.93
2018-08-03T00:33:30.175Z,30.67
2018-08-03T00:35:58.486Z,29.30
2018-08-03T00:38:26.714Z,30.60
2018-08-03T00:40:54.936Z,29.00
2018-08-03T00:43:23.294Z,29.80
2018-08-03T00:45:51.551Z,29.40
2018-08-03T00:48:19.782Z,30.67
2018-08-03T00:50:48.172Z,31.40
2018-08-03T00:53:16.399Z,29.60
2018-08-03T00:55:44.661Z,31.60
2018-08-03T00:58:12.912Z,29.93
2018-08-03T01:00:41.178Z,29.70
2018-08-03T01:03:09.671Z,31.10
2018-08-03T01:05:37.959Z,29.70
2018-08-03T01:08:06.252Z,28.73
2018-08-03T01:10:34.467Z,30.43
2018-08-03T01:13:02.715Z,29.40
2018-08-03T01:15:31.002Z,29.13
2018-08-03T01:17:59.238Z,28.10
2018-08-03T01:20:27.506Z,28.30
2018-08-03T01:22:55.755Z,27.47
2018-08-03T01:25:23.992Z,29.70
2018-08-03T01:27:52.242Z,28.53
2018-08-03T01:30:20.514Z,27.50
2018-08-03T01:32:48.826Z,27.97
2018-08-03T01:35:17.108Z,28.27
2018-08-03T01:37:45.442Z,28.47
2018-08-03T01:40:14.428Z,28.40
2018-08-03T01:42:42.671Z,27.60
2018-08-03T01:45:10.987Z,28.53
2018-08-03T01:47:39.207Z,27.57
2018-08-03T01:50:07.489Z,28.30
2018-08-03T01:52:35.726Z,29.53
2018-08-03T01:55:03.991Z,28.00
2018-08-03T01:57:32.256Z,28.20
2018-08-03T02:00:00.504Z,29.70
2018-08-03T02:02:28.807Z,28.40
2018-08-03T02:04:57.024Z,29.70
2018-08-03T02:07:25.248Z,30.00
2018-08-03T02:09:53.818Z,28.70
2018-08-03T02:12:22.055Z,30.73
2018-08-03T02:14:50.280Z,31.00
2018-08-03T02:17:18.517Z,31.10
2018-08-03T02:19:46.735Z,29.53
2018-08-03T02:22:14.980Z,29.53
2018-08-03T02:24:43.287Z,30.07
2018-08-03T02:27:11.514Z,30.27
2018-08-03T02:29:39.739Z,30.77
2018-08-03T02:32:08.015Z,29.87
2018-08-03T02:34:36.343Z,31.60
2018-08-03T02:37:04.558Z,29.53
2018-08-03T02:39:32.831Z,29.80
2018-08-03T02:42:01.058Z,29.80
2018-08-03T02:44:32.740Z,30.47
2018-08-03T02:47:01.135Z,31.17
2018-08-03T02:49:29.347Z,29.70
2018-08-03T02:51:57.564Z,28.10
2018-08-03T02:54:25.771Z,29.03
2018-08-03T02:56:54.031Z,27.60
2018-08-03T02:59:22.253Z,30.37
2018-08-03T03:01:50.502Z,30.50
2018-08-03T03:04:18.747Z,29.70
2018-08-03T03:06:46.962Z,28.60
2018-08-03T03:09:15.291Z,30.50
2018-08-03T03:11:43.498Z,29.00
2018-08-03T03:14:11.723Z,29.93
2018-08-03T03:16:40.035Z,29.03
2018-08-03T03:19:08.243Z,29.03
2018-08-03T03:21:36.459Z,30.43
2018-08-03T03:24:04.823Z,31.60
2018-08-03T03:26:33.050Z,30.70
2018-08-03T03:29:01.346Z,27.90
2018-08-03T03:31:29.658Z,29.40
2018-08-03T03:33:57.890Z,31.60
2018-08-03T03:36:26.101Z,30.90
2018-08-03T03:38:54.314Z,32.77
2018-08-03T03:41:22.538Z,29.33
2018-08-03T03:43:51.190Z,30.97
2018-08-03T03:46:19.455Z,32.43
2018-08-03T03:48:47.819Z,31.40
2018-08-03T03:51:16.072Z,31.30
2018-08-03T03:53:44.323Z,31.60
2018-08-03T03:56:12.885Z,32.63
2018-08-03T03:58:41.167Z,31.80
2018-08-03T04:01:09.443Z,31.00
2018-08-03T04:03:37.731Z,32.17
2018-08-03T04:06:06.069Z,31.13
2018-08-03T04:08:34.296Z,30.63
2018-08-03T04:11:02.575Z,32.47
2018-08-03T04:13:30.846Z,33.40
2018-08-03T04:15:59.286Z,32.20
2018-08-03T04:18:27.558Z,32.67
2018-08-03T04:20:55.778Z,33.83
2018-08-03T04:23:24.131Z,30.10
2018-08-03T04:25:52.418Z,32.90
2018-08-03T04:28:20.662Z,32.73
2018-08-03T04:30:48.894Z,32.13
2018-08-03T04:33:17.186Z,33.07
2018-08-03T04:35:45.486Z,31.40
2018-08-03T04:38:13.800Z,32.57
2018-08-03T04:40:42.066Z,32.90
2018-08-03T04:43:10.353Z,31.80
2018-08-03T04:45:38.574Z,33.27
2018-08-03T04:48:06.805Z,29.20
2018-08-03T04:50:35.039Z,31.47
2018-08-03T04:53:03.275Z,30.70
2018-08-03T04:55:31.535Z,31.53
2018-08-03T04:57:59.760Z,31.27
2018-08-03T05:00:28.015Z,32.93
2018-08-03T05:02:56.300Z,32.77
2018-08-03T05:05:24.571Z,31.90
2018-08-03T05:07:53.227Z,31.60
2018-08-03T05:10:21.471Z,31.73
2018-08-03T05:12:49.711Z,32.40
2018-08-03T05:15:17.990Z,30.30
2018-08-03T05:17:46.210Z,30.70
2018-08-03T05:20:14.415Z,33.57
2018-08-03T05:22:42.640Z,32.20
2018-08-03T05:25:10.906Z,30.60
2018-08-03T05:27:39.152Z,30.90
2018-08-03T05:30:08.622Z,35.23
2018-08-03T05:32:37.095Z,33.13
2018-08-03T05:35:05.949Z,33.17
2018-08-03T05:37:34.183Z,33.67
2018-08-03T05:40:02.468Z,32.73
2018-08-03T05:42:30.753Z,32.70
2018-08-03T05:44:58.970Z,31.87
2018-08-03T05:47:27.232Z,33.27
2018-08-03T05:49:55.450Z,37.77
2018-08-03T05:52:23.893Z,34.83
2018-08-03T05:54:52.107Z,33.77
2018-08-03T05:57:20.322Z,34.73
2018-08-03T05:59:48.586Z,34.50
2018-08-03T06:02:16.839Z,36.10
2018-08-03T06:04:45.063Z,34.37
2018-08-03T06:07:13.299Z,33.20
2018-08-03T06:09:41.561Z,33.60
2018-08-03T06:12:09.767Z,36.93
2018-08-03T06:14:37.993Z,37.77
2018-08-03T06:17:06.293Z,35.37
2018-08-03T06:19:34.523Z,35.20
2018-08-03T06:22:02.806Z,33.83
2018-08-03T06:24:31.673Z,30.97
2018-08-03T06:26:59.990Z,36.23
2018-08-03T06:29:28.282Z,36.63
2018-08-03T06:31:56.462Z,36.80
2018-08-03T06:34:24.673Z,37.73
2018-08-03T06:36:53.046Z,37.00
2018-08-03T06:39:21.272Z,37.00
2018-08-03T06:41:49.851Z,36.80
2018-08-03T06:44:18.115Z,35.23
2018-08-03T06:46:46.371Z,33.63
2018-08-03T06:49:14.606Z,33.13
2018-08-03T06:51:42.834Z,34.50
2018-08-03T06:54:11.083Z,35.03
2018-08-03T06:56:39.299Z,34.07
2018-08-03T06:59:07.526Z,35.23
2018-08-03T07:01:35.755Z,34.07
2018-08-03T07:04:04.086Z,35.13
2018-08-03T07:06:32.330Z,35.37
2018-08-03T07:09:00.562Z,34.20
2018-08-03T07:11:28.906Z,32.23
2018-08-03T07:13:57.154Z,33.77
2018-08-03T07:16:25.372Z,34.23
2018-08-03T07:18:53.598Z,29.43
2018-08-03T07:21:27.254Z,30.90
2018-08-03T07:23:56.151Z,28.70
2018-08-03T07:26:24.427Z,29.63
2018-08-03T07:28:52.904Z,31.73
2018-08-03T07:31:21.169Z,31.50
2018-08-03T07:33:49.816Z,27.40
2018-08-03T07:36:18.047Z,26.17
2018-08-03T07:38:46.370Z,26.57
2018-08-03T07:41:14.588Z,25.63
2018-08-03T07:43:42.827Z,24.77
2018-08-03T07:46:11.107Z,27.67
2018-08-03T07:48:39.403Z,29.07
2018-08-03T07:51:07.676Z,25.97
2018-08-03T07:53:35.883Z,26.27
2018-08-03T07:56:04.095Z,27.10
2018-08-03T07:58:32.306Z,27.53
2018-08-03T08:01:00.519Z,25.00
2018-08-03T08:03:28.755Z,25.40
2018-08-03T08:05:56.989Z,25.17
2018-08-03T08:08:25.221Z,28.33
2018-08-03T08:10:53.455Z,25.10
2018-08-03T08:13:21.695Z,25.80
2018-08-03T08:15:49.943Z,26.33
2018-08-03T08:18:18.149Z,25.03
2018-08-03T08:20:46.370Z,26.30
2018-08-03T08:23:14.610Z,26.03
2018-08-03T08:25:42.855Z,25.87
2018-08-03T08:28:11.317Z,25.90
2018-08-03T08:30:41.037Z,28.90
2018-08-03T08:33:09.302Z,26.93
2018-08-03T08:35:37.526Z,25.93
2018-08-03T08:38:05.899Z,26.00
2018-08-03T08:40:34.117Z,27.40
2018-08-03T08:43:02.327Z,25.03
2018-08-03T08:45:30.560Z,24.67
2018-08-03T08:47:58.854Z,25.23
2018-08-03T08:50:27.126Z,25.10
2018-08-03T08:52:55.392Z,25.80
2018-08-03T08:55:23.661Z,24.57
2018-08-03T08:57:51.890Z,24.00
2018-08-03T09:00:20.091Z,25.03
2018-08-03T09:02:48.341Z,25.20
2018-08-03T09:05:16.547Z,27.33
2018-08-03T09:07:44.800Z,25.87
2018-08-03T09:10:12.991Z,25.50
2018-08-03T09:12:41.225Z,24.70
2018-08-03T09:15:09.443Z,22.33
2018-08-03T09:17:37.651Z,24.20
2018-08-03T09:20:06.077Z,23.27
2018-08-03T09:22:34.295Z,24.57
2018-08-03T09:25:02.587Z,24.53
2018-08-03T09:27:30.839Z,23.87
2018-08-03T09:29:59.063Z,22.37
2018-08-03T09:32:27.278Z,23.17
2018-08-03T09:34:55.527Z,25.03
2018-08-03T09:37:23.774Z,26.20
2018-08-03T09:39:52.167Z,24.47
2018-08-03T09:42:20.419Z,24.67
2018-08-03T09:44:48.626Z,23.43
2018-08-03T09:47:16.863Z,27.37
2018-08-03T09:49:45.102Z,25.50
2018-08-03T09:52:13.415Z,23.70
2018-08-03T09:54:41.642Z,25.70
2018-08-03T09:57:09.912Z,24.63
2018-08-03T09:59:38.106Z,26.60
2018-08-03T10:02:06.330Z,26.73
2018-08-03T10:04:34.530Z,22.40
2018-08-03T10:07:02.742Z,23.03
2018-08-03T10:09:30.991Z,24.63
2018-08-03T10:11:59.191Z,24.57
2018-08-03T10:14:27.412Z,23.30
2018-08-03T10:16:55.617Z,23.07
2018-08-03T10:19:23.818Z,24.80
2018-08-03T10:21:52.206Z,25.07
2018-08-03T10:24:20.422Z,23.60
2018-08-03T10:26:48.636Z,24.63
2018-08-03T10:29:16.853Z,25.20
2018-08-03T10:31:45.080Z,24.90
2018-08-03T10:34:13.274Z,24.03
2018-08-03T10:36:41.493Z,24.00
2018-08-03T10:39:10.570Z,24.13
2018-08-03T10:41:39.804Z,24.57
2018-08-03T10:44:08.363Z,21.80
2018-08-03T10:46:36.660Z,23.20
2018-08-03T10:49:05.020Z,23.63
2018-08-03T10:51:33.231Z,21.13
2018-08-03T10:54:01.447Z,22.90
2018-08-03T10:56:29.663Z,22.57
2018-08-03T10:58:57.907Z,23.03
2018-08-03T11:01:26.236Z,22.80
2018-08-03T11:03:54.367Z,21.70
2018-08-03T11:06:22.579Z,21.70
2018-08-03T11:08:50.858Z,21.30
2018-08-03T11:11:19.066Z,20.93
2018-08-03T11:13:47.432Z,21.87
2018-08-03T11:16:15.502Z,19.87
2018-08-03T11:18:43.714Z,20.90
2018-08-03T11:21:16.378Z,19.63
2018-08-03T11:23:44.863Z,21.10
2018-08-03T11:26:13.111Z,20.53
2018-08-03T11:28:41.676Z,20.50
2018-08-03T11:31:09.895Z,19.30
2018-08-03T11:33:38.158Z,19.27
2018-08-03T11:36:06.370Z,19.80
2018-08-03T11:38:34.604Z,19.00
2018-08-03T11:41:02.817Z,18.03
2018-08-03T11:43:31.308Z,17.97
2018-08-03T11:45:59.550Z,17.50
2018-08-03T11:48:27.820Z,17.60
2018-08-03T11:50:56.035Z,18.40
2018-08-03T11:53:24.250Z,17.90
2018-08-03T11:55:52.538Z,17.37
2018-08-03T11:58:20.740Z,19.07
2018-08-03T12:00:49.019Z,18.70
2018-08-03T12:03:17.214Z,16.43
2018-08-03T12:05:45.483Z,18.30
2018-08-03T12:08:13.687Z,16.33
2018-08-03T12:10:41.895Z,16.80
2018-08-03T12:13:10.130Z,17.13
2018-08-03T12:15:38.327Z,17.10
2018-08-03T12:18:06.559Z,18.70
2018-08-03T12:20:34.779Z,17.63
2018-08-03T12:23:02.995Z,17.00
2018-08-03T12:25:31.239Z,17.97
2018-08-03T12:27:59.449Z,17.80
2018-08-03T12:30:27.699Z,17.10
2018-08-03T12:32:55.923Z,16.53
2018-08-03T12:35:24.147Z,17.90
2018-08-03T12:37:52.381Z,16.80
2018-08-03T12:40:20.609Z,17.03
2018-08-03T12:42:48.802Z,17.13
2018-08-03T12:45:17.018Z,16.93
2018-08-03T12:47:45.231Z,17.47
2018-08-03T12:50:13.481Z,17.50
2018-08-03T12:52:41.766Z,16.50
2018-08-03T12:55:09.884Z,16.83
2018-08-03T12:57:44.630Z,16.67
2018-08-03T13:00:12.859Z,16.80
2018-08-03T13:02:41.143Z,16.43
2018-08-03T13:05:09.311Z,17.63
2018-08-03T13:07:37.586Z,16.33
2018-08-03T13:10:05.803Z,16.63
2018-08-03T13:12:34.079Z,16.90
2018-08-03T13:15:02.286Z,17.30
2018-08-03T13:17:30.502Z,16.50
2018-08-03T13:19:58.730Z,16.97
2018-08-03T13:22:26.951Z,16.87
2018-08-03T13:24:55.337Z,17.07
2018-08-03T13:27:23.582Z,17.30
2018-08-03T13:29:51.807Z,17.13
2018-08-03T13:32:20.045Z,17.87
2018-08-03T13:34:48.246Z,16.70
2018-08-03T13:37:23.038Z,16.37
2018-08-03T13:39:51.260Z,16.43
2018-08-03T13:42:19.464Z,16.90
2018-08-03T13:44:47.749Z,17.03
2018-08-03T13:47:15.971Z,15.80
2018-08-03T13:49:44.208Z,15.97
2018-08-03T13:52:12.443Z,17.00
2018-08-03T13:54:40.679Z,17.60
2018-08-03T13:57:08.899Z,15.43
2018-08-03T13:59:37.113Z,16.70
2018-08-03T14:02:15.021Z,14.90
2018-08-03T14:04:43.267Z,17.30
2018-08-03T14:07:11.490Z,17.20
2018-08-03T14:09:39.743Z,16.70
2018-08-03T14:12:08.015Z,16.83
2018-08-03T14:14:36.200Z,15.33
2018-08-03T14:17:04.435Z,16.23
2018-08-03T14:19:32.658Z,16.30
2018-08-03T14:22:00.926Z,15.77
2018-08-03T14:24:29.136Z,16.07
2018-08-03T14:26:57.371Z,15.80
2018-08-03T14:29:25.606Z,16.93
2018-08-03T14:31:53.929Z,17.00
2018-08-03T14:34:22.045Z,16.40
2018-08-03T14:36:50.290Z,16.47
2018-08-03T14:39:18.586Z,17.90
2018-08-03T14:41:46.805Z,16.60
2018-08-03T14:44:15.019Z,16.77
2018-08-03T14:46:43.230Z,16.77
2018-08-03T14:49:11.463Z,16.37
2018-08-03T14:51:39.874Z,17.40
2018-08-03T14:54:08.218Z,16.87
2018-08-03T14:56:36.459Z,16.43
2018-08-03T14:59:04.674Z,17.47
2018-08-03T15:01:32.929Z,16.50
2018-08-03T15:04:01.188Z,16.63
2018-08-03T15:06:29.406Z,15.80
2018-08-03T15:08:57.615Z,16.10
2018-08-03T15:11:25.853Z,16.10
2018-08-03T15:13:54.094Z,16.77
2018-08-03T15:16:22.323Z,17.20
2018-08-03T15:18:50.543Z,15.83
2018-08-03T15:21:18.773Z,17.10
2018-08-03T15:23:47.004Z,14.73
2018-08-03T15:26:15.234Z,16.40
2018-08-03T15:28:43.458Z,17.30
2018-08-03T15:31:11.671Z,17.23
2018-08-03T15:33:39.895Z,15.63
2018-08-03T15:36:08.114Z,16.00
2018-08-03T15:38:37.388Z,16.87
2018-08-03T15:41:05.635Z,16.27
2018-08-03T15:43:33.852Z,17.17
2018-08-03T15:46:02.099Z,15.00
2018-08-03T15:48:30.311Z,16.37
2018-08-03T15:51:04.907Z,16.20
2018-08-03T15:53:33.131Z,17.23
2018-08-03T15:56:01.634Z,16.60
2018-08-03T15:58:29.891Z,15.77
2018-08-03T16:00:58.161Z,15.37
2018-08-03T16:03:26.382Z,15.50
2018-08-03T16:05:54.662Z,15.73
2018-08-03T16:08:22.901Z,17.27
2018-08-03T16:10:51.119Z,16.53
2018-08-03T16:13:19.323Z,15.50
2018-08-03T16:15:47.574Z,16.30
2018-08-03T16:18:15.883Z,16.50
2018-08-03T16:20:44.111Z,15.57
2018-08-03T16:23:12.332Z,16.30
2018-08-03T16:25:40.603Z,17.27
2018-08-03T16:28:08.804Z,17.00
2018-08-03T16:30:37.006Z,17.70
2018-08-03T16:33:05.265Z,17.87
2018-08-03T16:35:33.510Z,16.97
2018-08-03T16:38:01.811Z,15.83
2018-08-03T16:40:30.362Z,16.30
2018-08-03T16:42:58.667Z,17.23
2018-08-03T16:45:26.880Z,17.00
2018-08-03T16:47:55.099Z,17.10
2018-08-03T16:50:23.359Z,16.70
2018-08-03T16:52:51.622Z,16.47
2018-08-03T16:55:19.890Z,17.03
2018-08-03T16:57:48.105Z,15.70
2018-08-03T17:00:18.372Z,14.53
2018-08-03T17:02:46.998Z,15.10
2018-08-03T17:05:15.304Z,14.93
2018-08-03T17:07:43.571Z,15.53
2018-08-03T17:10:11.856Z,15.83
2018-08-03T17:12:40.474Z,16.37
2018-08-03T17:15:08.784Z,15.27
2018-08-03T17:17:37.088Z,15.40
2018-08-03T17:20:05.686Z,15.47
2018-08-03T17:22:33.951Z,15.13
2018-08-03T17:25:02.208Z,15.93
2018-08-03T17:27:45.262Z,16.03
2018-08-03T17:30:13.552Z,16.07
2018-08-03T17:32:41.828Z,16.17
2018-08-03T17:35:10.128Z,15.40
2018-08-03T17:37:38.513Z,15.97
2018-08-03T17:40:06.823Z,16.27
2018-08-03T17:42:35.161Z,15.90
2018-08-03T17:45:03.395Z,15.67
2018-08-03T17:47:31.738Z,16.30
2018-08-03T17:49:59.984Z,16.23
2018-08-03T17:52:28.225Z,17.40
2018-08-03T17:54:56.469Z,16.13
2018-08-03T17:57:24.815Z,14.97
2018-08-03T17:59:53.014Z,15.00
2018-08-03T18:02:21.290Z,15.77
2018-08-03T18:04:49.775Z,15.77
2018-08-03T18:07:18.027Z,16.20
2018-08-03T18:09:46.255Z,15.30
2018-08-03T18:12:14.556Z,16.00
2018-08-03T18:14:42.855Z,15.70
2018-08-03T18:17:11.145Z,16.37
2018-08-03T18:19:39.415Z,15.43
2018-08-03T18:22:07.735Z,15.70
2018-08-03T18:24:35.987Z,16.20
2018-08-03T18:27:04.191Z,16.80
2018-08-03T18:29:32.426Z,15.97
2018-08-03T18:32:00.631Z,16.03
2018-08-03T18:34:28.963Z,16.33
2018-08-03T18:36:57.235Z,15.47
2018-08-03T18:39:25.538Z,15.57
2018-08-03T18:41:53.814Z,16.00
2018-08-03T18:44:22.031Z,16.13
2018-08-03T18:46:50.304Z,16.00
2018-08-03T18:49:18.663Z,16.60
2018-08-03T18:51:46.984Z,16.30
2018-08-03T18:54:15.200Z,15.53
2018-08-03T18:56:43.422Z,16.63
2018-08-03T18:59:11.751Z,15.17
2018-08-03T19:01:40.051Z,15.70
2018-08-03T19:04:08.339Z,16.07
2018-08-03T19:06:36.626Z,16.87
2018-08-03T19:09:06.754Z,16.90
2018-08-03T19:11:35.031Z,17.53
2018-08-03T19:14:03.367Z,17.33
2018-08-03T19:16:31.766Z,16.97
2018-08-03T19:19:01.858Z,17.03
2018-08-03T19:21:30.630Z,18.30
2018-08-03T19:24:00.483Z,18.00
2018-08-03T19:26:28.738Z,19.07
2018-08-03T19:28:57.047Z,17.67
2018-08-03T19:31:25.334Z,18.00
2018-08-03T19:33:53.867Z,18.40
2018-08-03T19:36:22.129Z,18.70
2018-08-03T19:38:50.402Z,17.93
2018-08-03T19:41:18.619Z,18.03
2018-08-03T19:43:46.886Z,18.50
2018-08-03T19:46:15.188Z,17.80
2018-08-03T19:48:44.492Z,18.60
2018-08-03T19:51:12.791Z,18.70
2018-08-03T19:53:41.052Z,19.60
2018-08-03T19:56:09.351Z,18.50
2018-08-03T19:58:37.734Z,19.40
2018-08-03T20:01:06.343Z,19.33
2018-08-03T20:03:34.634Z,19.53
2018-08-03T20:06:03.038Z,21.43
2018-08-03T20:08:31.322Z,19.70
2018-08-03T20:10:59.778Z,20.43
2018-08-03T20:13:28.145Z,18.97
2018-08-03T20:15:56.379Z,18.90
2018-08-03T20:18:24.675Z,20.10
2018-08-03T20:20:52.931Z,21.30
2018-08-03T20:23:21.253Z,18.27
2018-08-03T20:25:49.526Z,18.60
2018-08-03T20:28:17.808Z,20.13
2018-08-03T20:30:46.127Z,20.37
2018-08-03T20:33:14.439Z,19.03
2018-08-03T20:35:42.779Z,20.07
2018-08-03T20:38:11.090Z,20.17
2018-08-03T20:40:39.411Z,18.77
2018-08-03T20:43:07.735Z,18.60
2018-08-03T20:45:36.120Z,20.73
2018-08-03T20:48:04.512Z,19.90
2018-08-03T20:50:32.842Z,18.77
2018-08-03T20:53:01.180Z,20.57
2018-08-03T20:55:29.612Z,19.90
2018-08-03T20:57:57.819Z,22.03
2018-08-03T21:00:26.125Z,19.23
2018-08-03T21:02:54.438Z,20.27
2018-08-03T21:05:22.847Z,21.03
2018-08-03T21:07:51.109Z,19.77
2018-08-03T21:10:19.358Z,21.07
2018-08-03T21:12:47.759Z,20.30
2018-08-03T21:15:15.953Z,20.40
2018-08-03T21:17:44.258Z,21.13
2018-08-03T21:20:12.510Z,19.20
2018-08-03T21:22:40.924Z,20.00
2018-08-03T21:25:09.569Z,21.40
2018-08-03T21:27:37.803Z,19.60
2018-08-03T21:30:07.975Z,21.10
2018-08-03T21:32:36.261Z,20.87
2018-08-03T21:35:04.762Z,20.03
2018-08-03T21:37:33.210Z,19.27
2018-08-03T21:40:01.311Z,19.70
2018-08-03T21:42:29.580Z,19.97
2018-08-03T21:44:58.016Z,20.90
2018-08-03T21:47:26.241Z,19.37
2018-08-03T21:49:54.515Z,18.73
2018-08-03T21:52:22.774Z,18.37
2018-08-03T21:54:51.092Z,19.10
2018-08-03T21:57:19.330Z,19.53
2018-08-03T21:59:47.550Z,18.93
2018-08-03T22:02:15.825Z,20.10
2018-08-03T22:04:44.186Z,21.27
2018-08-03T22:07:12.378Z,20.20
2018-08-03T22:09:40.582Z,19.83
2018-08-03T22:12:09.002Z,18.93
2018-08-03T22:14:37.195Z,19.90
2018-08-03T22:17:05.401Z,19.23
2018-08-03T22:19:33.632Z,20.27
2018-08-03T22:22:01.862Z,19.90
2018-08-03T22:24:30.155Z,19.90
2018-08-03T22:26:58.346Z,20.67
2018-08-03T22:29:26.640Z,20.30
2018-08-03T22:31:54.952Z,19.30
2018-08-03T22:34:23.201Z,19.67
2018-08-03T22:36:51.448Z,19.10
2018-08-03T22:39:19.741Z,19.83
2018-08-03T22:41:47.946Z,17.33
2018-08-03T22:44:16.191Z,18.63
2018-08-03T22:46:44.437Z,18.03
2018-08-03T22:49:12.830Z,17.97
2018-08-03T22:51:41.036Z,17.40
2018-08-03T22:54:09.282Z,17.77
2018-08-03T22:56:37.482Z,17.80
2018-08-03T22:59:05.729Z,18.50
2018-08-03T23:01:33.983Z,17.03
2018-08-03T23:04:02.299Z,18.07
2018-08-03T23:06:30.571Z,17.83
2018-08-03T23:08:58.818Z,18.00
2018-08-03T23:11:27.120Z,17.73
2018-08-03T23:13:55.416Z,17.53
2018-08-03T23:16:23.728Z,18.00
2018-08-03T23:18:52.697Z,18.40
2018-08-03T23:21:20.935Z,18.73
2018-08-03T23:23:49.151Z,17.63
2018-08-03T23:26:17.419Z,18.30
2018-08-03T23:28:45.655Z,18.50
2018-08-03T23:31:13.863Z,18.43
2018-08-03T23:37:12.709Z,19.00
2018-08-03T23:39:40.991Z,18.63
2018-08-03T23:42:09.279Z,17.93
2018-08-03T23:44:37.686Z,19.83
2018-08-03T23:47:05.971Z,19.50
2018-08-03T23:49:34.266Z,17.87
2018-08-03T23:52:02.525Z,18.57
2018-08-03T23:54:30.851Z,18.60
2018-08-03T23:56:59.192Z,19.73
2018-08-03T23:59:27.516Z,19.30
